Time,TemperatureF,DewpointF,PressureIn,WindDirection,WindDirectionDegrees,WindSpeedMPH,WindSpeedGustMPH,Humidity,HourlyPrecipIn,Conditions,Clouds,dailyrainin,SoftwareType,DateUTC
2013-08-10 00:00:00,69.6,66.5,30.03,WSW,248,1.0,1.0,90,0.00,,,0.00,Wunderground v.1.15,2013-08-10 05:00:00,
2013-08-10 00:10:00,69.2,66.5,30.03,WSW,248,0.0,5.0,91,0.00,,,0.00,Wunderground v.1.15,2013-08-10 05:10:00,
2013-08-10 00:15:00,69.1,66.7,30.03,WSW,248,0.0,5.0,92,0.00,,,0.00,Wunderground v.1.15,2013-08-10 05:15:00,
2013-08-10 00:25:00,69.3,66.9,30.03,WSW,257,0.0,5.0,92,0.00,,,0.00,Wunderground v.1.15,2013-08-10 05:25:00,
2013-08-10 00:30:00,69.4,67.0,30.03,WSW,252,1.0,5.0,92,0.00,,,0.00,Wunderground v.1.15,2013-08-10 05:30:00,
2013-08-10 00:40:00,69.2,66.8,30.03,WSW,253,1.0,1.0,92,0.00,,,0.00,Wunderground v.1.15,2013-08-10 05:40:00,
2013-08-10 00:45:00,69.1,66.7,30.03,WSW,253,0.0,5.0,92,0.00,,,0.00,Wunderground v.1.15,2013-08-10 05:45:00,
2013-08-10 00:55:00,69.1,66.7,30.03,WSW,250,0.0,5.0,92,0.00,,,0.00,Wunderground v.1.15,2013-08-10 05:55:00,
2013-08-10 01:00:00,69.0,66.6,30.04,WSW,250,0.0,0.0,92,0.00,,,0.00,Wunderground v.1.15,2013-08-10 06:00:00,
2013-08-10 01:10:00,68.8,66.4,30.04,WSW,252,0.0,2.0,92,0.00,,,0.00,Wunderground v.1.15,2013-08-10 06:10:00,
2013-08-10 01:20:00,68.2,65.8,30.04,WSW,257,0.0,2.0,92,0.00,,,0.00,Wunderground v.1.15,2013-08-10 06:20:00,
2013-08-10 01:30:00,67.8,65.4,30.04,West,260,0.0,2.0,92,0.00,,,0.00,Wunderground v.1.15,2013-08-10 06:30:00,
2013-08-10 01:35:00,67.5,65.1,30.04,West,260,0.0,2.0,92,0.00,,,0.00,Wunderground v.1.15,2013-08-10 06:35:00,
2013-08-10 01:45:00,67.0,64.6,30.04,West,263,0.0,2.0,92,0.00,,,0.00,Wunderground v.1.15,2013-08-10 06:45:00,
2013-08-10 01:55:00,66.6,64.2,30.04,West,264,0.0,2.0,92,0.00,,,0.00,Wunderground v.1.15,2013-08-10 06:55:00,
2013-08-10 02:00:00,66.6,64.2,30.04,West,264,0.0,0.0,92,0.00,,,0.00,Wunderground v.1.15,2013-08-10 07:00:00,
2013-08-10 02:10:00,66.3,63.6,30.05,West,264,0.0,2.0,91,0.00,,,0.00,Wunderground v.1.15,2013-08-10 07:10:00,
2013-08-10 02:20:00,65.7,63.3,30.05,West,264,0.0,2.0,92,0.00,,,0.00,Wunderground v.1.15,2013-08-10 07:20:00,
2013-08-10 02:30:00,65.1,63.0,30.05,West,264,0.0,2.0,93,0.00,,,0.00,Wunderground v.1.15,2013-08-10 07:30:00,
2013-08-10 02:40:00,65.0,62.6,30.05,West,271,0.0,2.0,92,0.00,,,0.00,Wunderground v.1.15,2013-08-10 07:40:00,
2013-08-10 02:50:00,64.8,62.4,30.05,West,271,0.0,2.0,92,0.00,,,0.00,Wunderground v.1.15,2013-08-10 07:50:00,
2013-08-10 02:55:00,64.7,62.3,30.05,West,271,0.0,2.0,92,0.00,,,0.00,Wunderground v.1.15,2013-08-10 07:55:00,
2013-08-10 03:00:00,64.8,62.4,30.05,West,271,0.0,0.0,92,0.00,,,0.00,Wunderground v.1.15,2013-08-10 08:00:00,
2013-08-10 03:10:00,64.8,62.7,30.05,West,271,0.0,2.0,93,0.00,,,0.00,Wunderground v.1.15,2013-08-10 08:10:00,
2013-08-10 03:15:00,64.8,62.7,30.05,West,270,0.0,2.0,93,0.00,,,0.00,Wunderground v.1.15,2013-08-10 08:15:00,
2013-08-10 03:25:00,64.9,62.5,30.06,West,260,0.0,2.0,92,0.00,,,0.00,Wunderground v.1.15,2013-08-10 08:25:00,
2013-08-10 03:35:00,64.4,62.0,30.06,West,260,0.0,2.0,92,0.00,,,0.00,Wunderground v.1.15,2013-08-10 08:35:00,
2013-08-10 03:40:00,64.1,61.7,30.06,West,260,0.0,2.0,92,0.00,,,0.00,Wunderground v.1.15,2013-08-10 08:40:00,
2013-08-10 03:50:00,63.7,61.6,30.05,West,260,0.0,2.0,93,0.00,,,0.00,Wunderground v.1.15,2013-08-10 08:50:00,
2013-08-10 04:00:00,62.7,60.6,30.06,West,260,0.0,0.0,93,0.00,,,0.00,Wunderground v.1.15,2013-08-10 09:00:00,
2013-08-10 04:10:00,62.4,60.9,30.06,West,260,0.0,1.0,95,0.00,,,0.00,Wunderground v.1.15,2013-08-10 09:10:00,
2013-08-10 04:20:00,62.1,60.7,30.06,WSW,252,0.0,1.0,95,0.00,,,0.00,Wunderground v.1.15,2013-08-10 09:20:00,
2013-08-10 04:30:00,61.7,60.3,30.06,West,274,1.0,1.0,95,0.00,,,0.00,Wunderground v.1.15,2013-08-10 09:30:00,
2013-08-10 04:40:00,61.4,60.0,30.06,West,276,0.0,1.0,95,0.00,,,0.00,Wunderground v.1.15,2013-08-10 09:40:00,
2013-08-10 04:45:00,61.4,60.0,30.06,West,275,0.0,1.0,95,0.00,,,0.00,Wunderground v.1.15,2013-08-10 09:45:00,
2013-08-10 04:55:00,61.4,59.7,30.07,West,279,0.0,1.0,94,0.00,,,0.00,Wunderground v.1.15,2013-08-10 09:55:00,
2013-08-10 05:00:00,61.3,59.6,30.07,WNW,283,0.0,1.0,94,0.00,,,0.00,Wunderground v.1.15,2013-08-10 10:00:00,
2013-08-10 05:10:00,61.1,59.4,30.07,WNW,288,1.0,1.0,94,0.00,,,0.00,Wunderground v.1.15,2013-08-10 10:10:00,
2013-08-10 05:15:00,61.0,59.3,30.07,WNW,287,1.0,1.0,94,0.00,,,0.00,Wunderground v.1.15,2013-08-10 10:15:00,
2013-08-10 05:25:00,60.8,59.1,30.07,West,281,0.0,1.0,94,0.00,,,0.00,Wunderground v.1.15,2013-08-10 10:25:00,
2013-08-10 05:30:00,60.6,58.9,30.07,West,281,0.0,1.0,94,0.00,,,0.00,Wunderground v.1.15,2013-08-10 10:30:00,
2013-08-10 05:40:00,60.3,58.6,30.07,West,281,0.0,1.0,94,0.00,,,0.00,Wunderground v.1.15,2013-08-10 10:40:00,
2013-08-10 05:45:00,60.0,58.6,30.07,West,281,0.0,1.0,95,0.00,,,0.00,Wunderground v.1.15,2013-08-10 10:45:00,
2013-08-10 05:55:00,59.5,57.8,30.07,West,281,0.0,1.0,94,0.00,,,0.00,Wunderground v.1.15,2013-08-10 10:55:00,
2013-08-10 06:00:00,59.3,57.9,30.08,West,281,0.0,0.0,95,0.00,,,0.00,Wunderground v.1.15,2013-08-10 11:00:00,
2013-08-10 06:10:00,59.0,57.9,30.07,West,281,0.0,1.0,96,0.00,,,0.00,Wunderground v.1.15,2013-08-10 11:10:00,
2013-08-10 06:20:00,59.3,58.2,30.08,West,281,0.0,1.0,96,0.00,,,0.00,Wunderground v.1.15,2013-08-10 11:20:00,
2013-08-10 06:30:00,59.9,58.5,30.08,WNW,282,0.0,1.0,95,0.00,,,0.00,Wunderground v.1.15,2013-08-10 11:30:00,
2013-08-10 06:35:00,60.3,58.9,30.08,West,281,0.0,1.0,95,0.00,,,0.00,Wunderground v.1.15,2013-08-10 11:35:00,
2013-08-10 06:45:00,61.5,59.2,30.08,West,281,0.0,1.0,92,0.00,,,0.00,Wunderground v.1.15,2013-08-10 11:45:00,
2013-08-10 06:55:00,61.9,59.5,30.08,West,281,0.0,1.0,92,0.00,,,0.00,Wunderground v.1.15,2013-08-10 11:55:00,
2013-08-10 07:00:00,62.2,59.8,30.08,WNW,282,0.0,0.0,92,0.00,,,0.00,Wunderground v.1.15,2013-08-10 12:00:00,
2013-08-10 07:10:00,62.4,60.0,30.08,NW,315,1.0,1.0,92,0.00,,,0.00,Wunderground v.1.15,2013-08-10 12:10:00,
2013-08-10 07:20:00,63.0,60.3,30.08,WNW,302,1.0,2.0,91,0.00,,,0.00,Wunderground v.1.15,2013-08-10 12:20:00,
2013-08-10 07:30:00,63.6,60.3,30.08,NW,316,1.0,2.0,89,0.00,,,0.00,Wunderground v.1.15,2013-08-10 12:30:00,
2013-08-10 07:40:00,64.1,61.1,30.08,NW,316,2.0,2.0,90,0.00,,,0.00,Wunderground v.1.15,2013-08-10 12:40:00,
2013-08-10 07:45:00,64.4,61.4,30.08,NW,326,1.0,2.0,90,0.00,,,0.00,Wunderground v.1.15,2013-08-10 12:45:00,
2013-08-10 07:55:00,65.2,62.2,30.08,NNE,20,2.0,2.0,90,0.00,,,0.00,Wunderground v.1.15,2013-08-10 12:55:00,
2013-08-10 08:00:00,65.8,62.5,30.08,North,350,2.0,3.0,89,0.00,,,0.00,Wunderground v.1.15,2013-08-10 13:00:00,
2013-08-10 08:10:00,66.4,62.4,30.08,NNW,342,2.0,2.0,87,0.00,,,0.00,Wunderground v.1.15,2013-08-10 13:10:00,
2013-08-10 08:15:00,66.8,62.8,30.08,North,349,2.0,2.0,87,0.00,,,0.00,Wunderground v.1.15,2013-08-10 13:15:00,
2013-08-10 08:25:00,67.5,63.5,30.09,NNW,329,1.0,2.0,87,0.00,,,0.00,Wunderground v.1.15,2013-08-10 13:25:00,
2013-08-10 08:35:00,68.4,64.0,30.09,North,3,2.0,2.0,86,0.00,,,0.00,Wunderground v.1.15,2013-08-10 13:35:00,
2013-08-10 08:45:00,69.0,64.3,30.09,North,359,2.0,2.0,85,0.00,,,0.00,Wunderground v.1.15,2013-08-10 13:45:00,
2013-08-10 08:50:00,69.3,64.3,30.09,NE,44,2.0,2.0,84,0.00,,,0.00,Wunderground v.1.15,2013-08-10 13:50:00,
2013-08-10 09:00:00,69.8,64.4,30.09,NNE,17,2.0,2.0,83,0.00,,,0.00,Wunderground v.1.15,2013-08-10 14:00:00,
2013-08-10 09:10:00,70.2,65.1,30.09,NNW,333,2.0,2.0,84,0.00,,,0.00,Wunderground v.1.15,2013-08-10 14:10:00,
2013-08-10 09:20:00,71.0,65.6,30.09,NW,324,1.0,4.0,83,0.00,,,0.00,Wunderground v.1.15,2013-08-10 14:20:00,
2013-08-10 09:30:00,71.4,66.0,30.09,WNW,288,2.0,4.0,83,0.00,,,0.00,Wunderground v.1.15,2013-08-10 14:30:00,
2013-08-10 09:35:00,71.8,66.4,30.09,NW,326,2.0,4.0,83,0.00,,,0.00,Wunderground v.1.15,2013-08-10 14:35:00,
2013-08-10 09:45:00,72.7,67.2,30.10,WNW,297,2.0,4.0,83,0.00,,,0.00,Wunderground v.1.15,2013-08-10 14:45:00,
2013-08-10 09:50:00,72.9,67.1,30.10,WNW,290,2.0,4.0,82,0.00,,,0.00,Wunderground v.1.15,2013-08-10 14:50:00,
2013-08-10 10:00:00,73.3,66.4,30.10,WNW,293,2.0,2.0,79,0.00,,,0.00,Wunderground v.1.15,2013-08-10 15:00:00,
2013-08-10 10:05:00,73.8,66.5,30.10,WNW,303,2.0,5.0,78,0.00,,,0.00,Wunderground v.1.15,2013-08-10 15:05:00,
2013-08-10 10:15:00,74.3,64.7,30.10,WSW,244,1.0,5.0,72,0.00,,,0.00,Wunderground v.1.15,2013-08-10 15:15:00,
2013-08-10 10:25:00,74.9,67.2,30.10,WNW,293,2.0,5.0,77,0.00,,,0.00,Wunderground v.1.15,2013-08-10 15:25:00,
2013-08-10 10:30:00,75.5,65.8,30.10,West,259,1.0,1.0,72,0.00,,,0.00,Wunderground v.1.15,2013-08-10 15:30:00,
2013-08-10 10:40:00,76.5,66.4,30.11,NW,311,1.0,5.0,71,0.00,,,0.00,Wunderground v.1.15,2013-08-10 15:40:00,
2013-08-10 10:45:00,76.4,63.8,30.11,NW,319,1.0,5.0,65,0.00,,,0.00,Wunderground v.1.15,2013-08-10 15:45:00,
2013-08-10 10:55:00,76.6,66.9,30.11,NW,309,2.0,5.0,72,0.00,,,0.00,Wunderground v.1.15,2013-08-10 15:55:00,
2013-08-10 11:00:00,76.7,65.3,30.11,WNW,288,2.0,4.0,68,0.00,,,0.00,Wunderground v.1.15,2013-08-10 16:00:00,
2013-08-10 11:10:00,76.6,65.7,30.11,NW,319,3.0,5.0,69,0.00,,,0.00,Wunderground v.1.15,2013-08-10 16:10:00,
2013-08-10 11:20:00,76.8,65.9,30.11,WNW,292,3.0,5.0,69,0.00,,,0.00,Wunderground v.1.15,2013-08-10 16:20:00,
2013-08-10 11:25:00,76.8,64.6,30.10,WNW,294,3.0,5.0,66,0.00,,,0.00,Wunderground v.1.15,2013-08-10 16:25:00,
2013-08-10 11:35:00,77.3,65.5,30.10,WNW,282,3.0,5.0,67,0.00,,,0.00,Wunderground v.1.15,2013-08-10 16:35:00,
2013-08-10 11:45:00,77.6,63.5,30.10,NW,318,3.0,5.0,62,0.00,,,0.00,Wunderground v.1.15,2013-08-10 16:45:00,
2013-08-10 11:55:00,77.8,63.3,30.10,NW,323,3.0,4.0,61,0.00,,,0.00,Wunderground v.1.15,2013-08-10 16:55:00,
2013-08-10 12:00:00,77.3,63.7,30.10,WNW,295,4.0,4.0,63,0.00,,,0.00,Wunderground v.1.15,2013-08-10 17:00:00,
2013-08-10 12:10:00,77.5,63.5,30.10,NW,321,3.0,3.0,62,0.00,,,0.00,Wunderground v.1.15,2013-08-10 17:10:00,
2013-08-10 12:20:00,77.9,63.8,30.10,NNE,24,3.0,3.0,62,0.00,,,0.00,Wunderground v.1.15,2013-08-10 17:20:00,
2013-08-10 12:25:00,78.0,63.0,30.10,WNW,293,3.0,5.0,60,0.00,,,0.00,Wunderground v.1.15,2013-08-10 17:25:00,
2013-08-10 12:35:00,78.1,63.6,30.10,NNW,328,3.0,5.0,61,0.00,,,0.00,Wunderground v.1.15,2013-08-10 17:35:00,
2013-08-10 12:40:00,78.2,63.6,30.10,NW,314,3.0,5.0,61,0.00,,,0.00,Wunderground v.1.15,2013-08-10 17:40:00,
2013-08-10 12:50:00,77.8,62.8,30.10,NW,307,2.0,5.0,60,0.00,,,0.00,Wunderground v.1.15,2013-08-10 17:50:00,
2013-08-10 12:55:00,78.2,63.6,30.10,NNW,341,3.0,5.0,61,0.00,,,0.00,Wunderground v.1.15,2013-08-10 17:55:00,
2013-08-10 13:00:00,77.2,61.3,30.10,West,278,3.0,3.0,58,0.00,,,0.00,Wunderground v.1.15,2013-08-10 18:00:00,
2013-08-10 13:10:00,76.8,63.2,30.10,NW,304,2.0,9.0,63,0.00,,,0.00,Wunderground v.1.15,2013-08-10 18:10:00,
2013-08-10 13:20:00,77.3,59.9,30.10,WSW,252,2.0,9.0,55,0.00,,,0.00,Wunderground v.1.15,2013-08-10 18:20:00,
2013-08-10 13:25:00,78.2,62.7,30.10,WNW,302,2.0,9.0,59,0.00,,,0.00,Wunderground v.1.15,2013-08-10 18:25:00,
2013-08-10 13:35:00,78.9,64.8,30.10,NW,312,4.0,9.0,62,0.00,,,0.00,Wunderground v.1.15,2013-08-10 18:35:00,
2013-08-10 13:45:00,78.3,64.7,30.09,NW,308,3.0,9.0,63,0.00,,,0.00,Wunderground v.1.15,2013-08-10 18:45:00,
2013-08-10 13:55:00,77.5,63.0,30.09,NNW,336,2.0,9.0,61,0.00,,,0.00,Wunderground v.1.15,2013-08-10 18:55:00,
2013-08-10 14:00:00,78.9,62.9,30.09,West,259,2.0,5.0,58,0.00,,,0.00,Wunderground v.1.15,2013-08-10 19:00:00,
2013-08-10 14:10:00,79.0,63.9,30.09,West,280,5.0,5.0,60,0.00,,,0.00,Wunderground v.1.15,2013-08-10 19:10:00,
2013-08-10 14:15:00,79.0,62.5,30.09,West,274,4.0,7.0,57,0.00,,,0.00,Wunderground v.1.15,2013-08-10 19:15:00,
2013-08-10 14:25:00,79.3,63.2,30.09,WNW,286,4.0,7.0,58,0.00,,,0.00,Wunderground v.1.15,2013-08-10 19:25:00,
2013-08-10 14:30:00,79.1,65.0,30.09,WSW,249,5.0,7.0,62,0.00,,,0.00,Wunderground v.1.15,2013-08-10 19:30:00,
2013-08-10 14:40:00,78.8,63.3,30.09,WNW,292,4.0,7.0,59,0.00,,,0.00,Wunderground v.1.15,2013-08-10 19:40:00,
2013-08-10 14:50:00,79.0,63.0,30.09,WNW,299,4.0,7.0,58,0.00,,,0.00,Wunderground v.1.15,2013-08-10 19:50:00,
2013-08-10 15:00:00,79.0,63.9,30.08,WNW,298,4.0,6.0,60,0.00,,,0.00,Wunderground v.1.15,2013-08-10 20:00:00,
2013-08-10 15:10:00,76.9,62.9,30.08,WNW,291,5.0,5.0,62,0.00,,,0.00,Wunderground v.1.15,2013-08-10 20:10:00,
2013-08-10 15:20:00,77.9,63.8,30.08,NNW,348,3.0,11.0,62,0.00,,,0.00,Wunderground v.1.15,2013-08-10 20:20:00,
2013-08-10 15:30:00,78.2,62.7,30.08,NNW,338,3.0,11.0,59,0.00,,,0.00,Wunderground v.1.15,2013-08-10 20:30:00,
2013-08-10 15:35:00,78.1,61.6,30.08,NW,318,4.0,11.0,57,0.00,,,0.00,Wunderground v.1.15,2013-08-10 20:35:00,
2013-08-10 15:45:00,77.9,61.9,30.07,NW,326,4.0,11.0,58,0.00,,,0.00,Wunderground v.1.15,2013-08-10 20:45:00,
2013-08-10 15:50:00,77.0,62.0,30.07,NNW,345,3.0,11.0,60,0.00,,,0.00,Wunderground v.1.15,2013-08-10 20:50:00,
2013-08-10 16:00:00,78.6,61.6,30.07,West,266,5.0,5.0,56,0.00,,,0.00,Wunderground v.1.15,2013-08-10 21:00:00,
2013-08-10 16:10:00,77.7,62.2,30.07,North,354,4.0,4.0,59,0.00,,,0.00,Wunderground v.1.15,2013-08-10 21:10:00,
2013-08-10 16:20:00,78.4,63.8,30.07,NE,41,3.0,3.0,61,0.00,,,0.00,Wunderground v.1.15,2013-08-10 21:20:00,
2013-08-10 16:30:00,78.8,62.3,30.07,NW,323,4.0,4.0,57,0.00,,,0.00,Wunderground v.1.15,2013-08-10 21:30:00,
2013-08-10 16:35:00,78.8,61.8,30.06,NNW,348,4.0,11.0,56,0.00,,,0.00,Wunderground v.1.15,2013-08-10 21:35:00,
2013-08-10 16:45:00,78.6,61.1,30.07,WNW,300,4.0,11.0,55,0.00,,,0.00,Wunderground v.1.15,2013-08-10 21:45:00,
2013-08-10 16:50:00,77.5,61.1,30.07,NW,312,3.0,3.0,57,0.00,,,0.00,Wunderground v.1.15,2013-08-10 21:50:00,
2013-08-10 17:00:00,76.4,63.3,30.07,WNW,298,2.0,2.0,64,0.00,,,0.00,Wunderground v.1.15,2013-08-10 22:00:00,
2013-08-10 17:10:00,76.4,62.9,30.06,WNW,293,2.0,9.0,63,0.00,,,0.00,Wunderground v.1.15,2013-08-10 22:10:00,
2013-08-10 17:20:00,76.9,60.5,30.06,NW,305,3.0,3.0,57,0.00,,,0.00,Wunderground v.1.15,2013-08-10 22:20:00,
2013-08-10 17:30:00,77.7,61.7,30.06,NW,318,2.0,2.0,58,0.00,,,0.00,Wunderground v.1.15,2013-08-10 22:30:00,
2013-08-10 17:35:00,77.9,64.3,30.06,WNW,285,2.0,3.0,63,0.00,,,0.00,Wunderground v.1.15,2013-08-10 22:35:00,
2013-08-10 17:45:00,77.7,63.2,30.06,NW,304,3.0,9.0,61,0.00,,,0.00,Wunderground v.1.15,2013-08-10 22:45:00,
2013-08-10 17:50:00,77.4,61.9,30.06,WNW,291,3.0,9.0,59,0.00,,,0.00,Wunderground v.1.15,2013-08-10 22:50:00,
2013-08-10 18:00:00,77.4,62.9,30.06,NW,313,3.0,4.0,61,0.00,,,0.00,Wunderground v.1.15,2013-08-10 23:00:00,
2013-08-10 18:10:00,77.3,62.8,30.06,NW,309,2.0,9.0,61,0.00,,,0.00,Wunderground v.1.15,2013-08-10 23:10:00,
2013-08-10 18:20:00,77.1,62.1,30.06,WNW,302,2.0,9.0,60,0.00,,,0.00,Wunderground v.1.15,2013-08-10 23:20:00,
2013-08-10 18:30:00,76.8,61.9,30.06,NNW,330,2.0,9.0,60,0.00,,,0.00,Wunderground v.1.15,2013-08-10 23:30:00,
2013-08-10 18:40:00,75.9,62.4,30.06,NW,325,2.0,2.0,63,0.00,,,0.00,Wunderground v.1.15,2013-08-10 23:40:00,
2013-08-10 18:50:00,75.3,61.8,30.06,WNW,303,2.0,9.0,63,0.00,,,0.00,Wunderground v.1.15,2013-08-10 23:50:00,
2013-08-10 18:55:00,74.8,61.8,30.06,WNW,302,2.0,9.0,64,0.00,,,0.00,Wunderground v.1.15,2013-08-10 23:55:00,
2013-08-10 19:00:00,74.2,62.1,30.06,NW,307,2.0,2.0,66,0.00,,,0.00,Wunderground v.1.15,2013-08-11 00:00:00,
2013-08-10 19:10:00,73.2,64.0,30.06,NW,311,0.0,7.0,73,0.00,,,0.00,Wunderground v.1.15,2013-08-11 00:10:00,
2013-08-10 19:20:00,72.9,63.7,30.06,NW,314,0.0,7.0,73,0.00,,,0.00,Wunderground v.1.15,2013-08-11 00:20:00,
2013-08-10 19:25:00,72.4,64.0,30.06,NW,314,0.0,7.0,75,0.00,,,0.00,Wunderground v.1.15,2013-08-11 00:25:00,
2013-08-10 19:35:00,71.8,63.1,30.06,WNW,286,0.0,7.0,74,0.00,,,0.00,Wunderground v.1.15,2013-08-11 00:35:00,
2013-08-10 19:40:00,71.3,63.0,30.06,WNW,286,0.0,7.0,75,0.00,,,0.00,Wunderground v.1.15,2013-08-11 00:40:00,
2013-08-10 19:50:00,70.0,61.7,30.06,WNW,285,0.0,7.0,75,0.00,,,0.00,Wunderground v.1.15,2013-08-11 00:50:00,
2013-08-10 20:00:00,68.8,61.3,30.06,WSW,255,1.0,1.0,77,0.00,,,0.00,Wunderground v.1.15,2013-08-11 01:00:00,
2013-08-10 20:05:00,68.4,60.9,30.07,WSW,255,0.0,6.0,77,0.00,,,0.00,Wunderground v.1.15,2013-08-11 01:05:00,
2013-08-10 20:15:00,67.8,60.3,30.07,West,272,1.0,6.0,77,0.00,,,0.00,Wunderground v.1.15,2013-08-11 01:15:00,
2013-08-10 20:20:00,67.3,59.8,30.07,West,269,1.0,6.0,77,0.00,,,0.00,Wunderground v.1.15,2013-08-11 01:20:00,
2013-08-10 20:30:00,66.5,59.8,30.07,West,278,1.0,6.0,79,0.00,,,0.00,Wunderground v.1.15,2013-08-11 01:30:00,
2013-08-10 20:35:00,66.0,59.7,30.07,West,276,1.0,6.0,80,0.00,,,0.00,Wunderground v.1.15,2013-08-11 01:35:00,
2013-08-10 20:45:00,65.3,59.0,30.08,WSW,257,1.0,6.0,80,0.00,,,0.00,Wunderground v.1.15,2013-08-11 01:45:00,
2013-08-10 20:50:00,65.7,59.0,30.08,WSW,257,1.0,1.0,79,0.00,,,0.00,Wunderground v.1.15,2013-08-11 01:50:00,
2013-08-10 21:00:00,66.0,59.3,30.09,WSW,256,0.0,0.0,79,0.00,,,0.00,Wunderground v.1.15,2013-08-11 02:00:00,
2013-08-10 21:05:00,65.8,59.5,30.09,WSW,256,0.0,3.0,80,0.00,,,0.00,Wunderground v.1.15,2013-08-11 02:05:00,
2013-08-10 21:15:00,64.5,59.2,30.09,WSW,256,0.0,3.0,83,0.00,,,0.00,Wunderground v.1.15,2013-08-11 02:15:00,
2013-08-10 21:25:00,64.2,59.3,30.10,WSW,256,0.0,3.0,84,0.00,,,0.00,Wunderground v.1.15,2013-08-11 02:25:00,
2013-08-10 21:35:00,63.7,59.1,30.10,WSW,256,0.0,3.0,85,0.00,,,0.00,Wunderground v.1.15,2013-08-11 02:35:00,
2013-08-10 21:45:00,62.4,58.8,30.10,WSW,256,0.0,3.0,88,0.00,,,0.00,Wunderground v.1.15,2013-08-11 02:45:00,
2013-08-10 21:50:00,61.9,58.6,30.10,WSW,256,0.0,3.0,89,0.00,,,0.00,Wunderground v.1.15,2013-08-11 02:50:00,
2013-08-10 22:00:00,61.6,58.9,30.10,WSW,256,0.0,0.0,91,0.00,,,0.00,Wunderground v.1.15,2013-08-11 03:00:00,
2013-08-10 22:10:00,61.3,58.3,30.10,WSW,256,0.0,2.0,90,0.00,,,0.00,Wunderground v.1.15,2013-08-11 03:10:00,
2013-08-10 22:15:00,61.0,58.4,30.10,WSW,256,0.0,2.0,91,0.00,,,0.00,Wunderground v.1.15,2013-08-11 03:15:00,
2013-08-10 22:25:00,60.6,58.0,30.10,WSW,256,0.0,2.0,91,0.00,,,0.00,Wunderground v.1.15,2013-08-11 03:25:00,
2013-08-10 22:35:00,60.4,57.8,30.10,WSW,256,0.0,2.0,91,0.00,,,0.00,Wunderground v.1.15,2013-08-11 03:35:00,
2013-08-10 22:40:00,60.5,57.9,30.10,WSW,256,0.0,2.0,91,0.00,,,0.00,Wunderground v.1.15,2013-08-11 03:40:00,
2013-08-10 22:50:00,60.3,57.7,30.10,WSW,256,0.0,2.0,91,0.00,,,0.00,Wunderground v.1.15,2013-08-11 03:50:00,
2013-08-10 22:55:00,60.1,57.8,30.10,WSW,256,0.0,2.0,92,0.00,,,0.00,Wunderground v.1.15,2013-08-11 03:55:00,
2013-08-10 23:00:00,59.9,57.9,30.11,WSW,256,0.0,0.0,93,0.00,,,0.00,Wunderground v.1.15,2013-08-11 04:00:00,
2013-08-10 23:05:00,59.5,57.2,30.10,WSW,256,0.0,1.0,92,0.00,,,0.00,Wunderground v.1.15,2013-08-11 04:05:00,
2013-08-10 23:15:00,59.0,57.0,30.10,WSW,256,0.0,1.0,93,0.00,,,0.00,Wunderground v.1.15,2013-08-11 04:15:00,
2013-08-10 23:20:00,59.4,57.7,30.10,WSW,256,0.0,1.0,94,0.00,,,0.00,Wunderground v.1.15,2013-08-11 04:20:00,
2013-08-10 23:30:00,59.5,57.5,30.11,WSW,256,0.0,1.0,93,0.00,,,0.00,Wunderground v.1.15,2013-08-11 04:30:00,
2013-08-10 23:40:00,59.1,57.1,30.10,WSW,256,0.0,1.0,93,0.00,,,0.00,Wunderground v.1.15,2013-08-11 04:40:00,
2013-08-10 23:45:00,58.8,57.1,30.10,WSW,256,0.0,1.0,94,0.00,,,0.00,Wunderground v.1.15,2013-08-11 04:45:00,
2013-08-10 23:55:00,58.4,57.0,30.10,WSW,256,0.0,1.0,95,0.00,,,0.00,Wunderground v.1.15,2013-08-11 04:55:00,